createdAt,value
2022-10-30T00:02:23.848Z,109.10
2022-10-30T00:04:50.581Z,108.25
2022-10-30T00:07:17.203Z,107.97
2022-10-30T00:09:43.835Z,104.55
2022-10-30T00:12:10.465Z,109.20
2022-10-30T00:14:37.194Z,111.85
2022-10-30T00:17:03.833Z,106.03
2022-10-30T00:19:30.471Z,106.57
2022-10-30T00:24:24.072Z,104.38
2022-10-30T00:26:50.743Z,100.47
2022-10-30T00:29:17.695Z,111.88
2022-10-30T00:31:44.317Z,102.30
2022-10-30T00:34:11.009Z,106.55
2022-10-30T00:36:37.630Z,102.85
2022-10-30T00:39:05.565Z,101.95
2022-10-30T00:41:32.212Z,98.32
2022-10-30T00:43:58.857Z,98.63
2022-10-30T00:46:33.040Z,104.60
2022-10-30T00:49:19.685Z,97.55
2022-10-30T00:51:50.822Z,105.32
2022-10-30T00:54:18.801Z,100.20
2022-10-30T00:56:47.705Z,104.47
2022-10-30T00:59:21.130Z,103.20
2022-10-30T01:01:48.332Z,108.68
2022-10-30T01:04:17.113Z,105.47
2022-10-30T01:06:48.261Z,106.07
2022-10-30T01:09:15.805Z,119.45
2022-10-30T01:11:42.512Z,105.75
2022-10-30T01:14:12.000Z,111.07
2022-10-30T01:17:07.594Z,104.65
2022-10-30T01:19:44.105Z,109.28
2022-10-30T01:22:40.351Z,107.90
2022-10-30T01:25:28.197Z,108.45
2022-10-30T01:28:16.749Z,101.60
2022-10-30T01:30:50.364Z,103.50
2022-10-30T01:33:35.813Z,104.05
2022-10-30T01:36:14.718Z,107.57
2022-10-30T01:39:11.497Z,109.97
2022-10-30T01:41:38.191Z,110.13
2022-10-30T01:44:37.958Z,106.40
2022-10-30T01:47:22.213Z,105.40
2022-10-30T01:50:24.125Z,107.30
2022-10-30T01:53:02.806Z,106.32
2022-10-30T01:55:34.999Z,104.35
2022-10-30T01:58:19.981Z,107.70
2022-10-30T02:00:50.088Z,108.60
2022-10-30T02:03:16.736Z,108.45
2022-10-30T02:05:50.253Z,110.05
2022-10-30T02:08:17.419Z,103.25
2022-10-30T02:10:47.020Z,103.90
2022-10-30T02:13:13.969Z,108.72
2022-10-30T02:15:42.821Z,108.38
2022-10-30T02:18:09.510Z,104.10
2022-10-30T02:20:37.234Z,106.25
2022-10-30T02:23:04.743Z,102.35
2022-10-30T02:25:31.636Z,105.30
2022-10-30T02:27:59.061Z,103.95
2022-10-30T02:30:25.889Z,104.55
2022-10-30T02:32:52.496Z,107.82
2022-10-30T02:35:19.119Z,103.20
2022-10-30T02:37:48.881Z,105.50
2022-10-30T02:40:15.648Z,101.38
2022-10-30T02:42:42.265Z,105.30
2022-10-30T02:45:09.497Z,111.47
2022-10-30T02:47:36.126Z,104.95
2022-10-30T02:50:02.905Z,104.60
2022-10-30T02:52:29.527Z,107.80
2022-10-30T02:54:56.130Z,112.05
2022-10-30T02:57:22.812Z,106.57
2022-10-30T02:59:49.408Z,103.78
2022-10-30T03:02:16.097Z,103.63
2022-10-30T03:04:42.765Z,103.53
2022-10-30T03:07:09.479Z,105.28
2022-10-30T03:09:36.092Z,106.97
2022-10-30T03:12:02.760Z,107.05
2022-10-30T03:14:29.413Z,105.22
2022-10-30T03:16:56.060Z,105.93
2022-10-30T03:19:22.731Z,103.35
2022-10-30T03:21:49.456Z,106.53
2022-10-30T03:24:16.152Z,108.60
2022-10-30T03:26:42.803Z,111.15
2022-10-30T03:29:09.430Z,103.85
2022-10-30T03:31:36.457Z,107.47
2022-10-30T03:34:03.075Z,102.22
2022-10-30T03:36:29.709Z,105.88
2022-10-30T03:38:56.625Z,114.50
2022-10-30T03:41:23.277Z,108.55
2022-10-30T03:43:50.562Z,109.57
2022-10-30T03:46:17.210Z,104.18
2022-10-30T03:48:43.802Z,105.75
2022-10-30T03:51:10.446Z,103.07
2022-10-30T03:53:37.118Z,106.90
2022-10-30T03:56:04.920Z,105.13
2022-10-30T03:58:31.737Z,104.68
2022-10-30T04:01:03.071Z,109.65
2022-10-30T04:03:29.788Z,118.53
2022-10-30T04:05:56.450Z,106.50
2022-10-30T04:08:23.135Z,106.00
2022-10-30T04:10:50.021Z,104.97
2022-10-30T04:13:17.928Z,112.25
2022-10-30T04:15:44.615Z,101.78
2022-10-30T04:18:12.410Z,104.70
2022-10-30T04:20:39.081Z,111.55
2022-10-30T04:23:08.400Z,103.47
2022-10-30T04:25:35.727Z,103.55
2022-10-30T04:28:02.830Z,105.80
2022-10-30T04:30:33.959Z,105.85
2022-10-30T04:33:01.836Z,102.78
2022-10-30T04:35:31.896Z,102.25
2022-10-30T04:38:00.698Z,109.50
2022-10-30T04:40:30.602Z,103.85
2022-10-30T04:42:58.319Z,110.10
2022-10-30T04:45:25.481Z,112.00
2022-10-30T04:47:52.448Z,114.63
2022-10-30T04:50:19.675Z,113.70
2022-10-30T04:52:46.303Z,112.18
2022-10-30T04:55:13.193Z,104.10
2022-10-30T04:57:40.900Z,115.55
2022-10-30T05:00:08.736Z,108.47
2022-10-30T05:02:39.310Z,99.10
2022-10-30T05:05:06.278Z,101.78
2022-10-30T05:07:32.925Z,100.30
2022-10-30T05:09:59.529Z,99.18
2022-10-30T05:12:26.208Z,103.75
2022-10-30T05:14:52.871Z,97.72
2022-10-30T05:17:19.733Z,101.43
2022-10-30T05:19:46.390Z,99.32
2022-10-30T05:22:13.194Z,103.53
2022-10-30T05:24:39.854Z,111.43
2022-10-30T05:27:06.616Z,103.72
2022-10-30T05:29:33.246Z,102.80
2022-10-30T05:31:59.927Z,101.72
2022-10-30T05:34:26.671Z,107.28
2022-10-30T05:36:53.300Z,108.07
2022-10-30T05:39:19.989Z,99.75
2022-10-30T05:41:46.635Z,106.35
2022-10-30T05:44:13.261Z,108.40
2022-10-30T05:46:39.912Z,103.20
2022-10-30T05:49:06.648Z,105.18
2022-10-30T05:51:37.963Z,102.70
2022-10-30T05:54:07.158Z,106.85
2022-10-30T05:56:33.769Z,102.25
2022-10-30T05:59:00.472Z,104.93
2022-10-30T06:01:27.149Z,105.78
2022-10-30T06:03:53.884Z,102.45
2022-10-30T06:06:20.514Z,104.38
2022-10-30T06:08:47.202Z,102.53
2022-10-30T06:11:13.821Z,107.80
2022-10-30T06:13:40.498Z,104.53
2022-10-30T06:16:07.328Z,99.90
2022-10-30T06:18:33.961Z,106.57
2022-10-30T06:21:00.567Z,103.47
2022-10-30T06:23:27.245Z,103.93
2022-10-30T06:25:53.861Z,101.75
2022-10-30T06:28:20.493Z,103.25
2022-10-30T06:30:47.129Z,112.93
2022-10-30T06:33:13.811Z,101.78
2022-10-30T06:35:40.420Z,102.78
2022-10-30T06:38:08.702Z,104.20
2022-10-30T06:40:35.356Z,106.05
2022-10-30T06:43:02.372Z,103.65
2022-10-30T06:45:29.282Z,108.03
2022-10-30T06:47:56.268Z,100.18
2022-10-30T06:50:24.321Z,103.95
2022-10-30T06:52:51.347Z,103.13
2022-10-30T06:55:18.254Z,112.10
2022-10-30T06:57:44.930Z,102.05
2022-10-30T07:00:12.516Z,106.35
2022-10-30T07:02:39.172Z,103.82
2022-10-30T07:05:06.139Z,105.90
2022-10-30T07:07:32.787Z,105.18
2022-10-30T07:09:59.385Z,101.97
2022-10-30T07:12:26.053Z,109.35
2022-10-30T07:14:52.674Z,113.22
2022-10-30T07:17:19.297Z,107.47
2022-10-30T07:19:45.928Z,109.72
2022-10-30T07:22:12.532Z,119.82
2022-10-30T07:24:39.145Z,111.43
2022-10-30T07:27:05.784Z,116.10
2022-10-30T07:29:32.430Z,110.65
2022-10-30T07:32:02.937Z,107.57
2022-10-30T07:34:30.149Z,106.03
2022-10-30T07:36:56.952Z,108.72
2022-10-30T07:39:23.613Z,114.05
2022-10-30T07:41:53.152Z,114.88
2022-10-30T07:44:19.773Z,106.65
2022-10-30T07:46:46.511Z,108.75
2022-10-30T07:49:13.153Z,113.47
2022-10-30T07:51:39.772Z,105.93
2022-10-30T07:54:06.417Z,105.45
2022-10-30T07:56:33.050Z,106.10
2022-10-30T07:58:59.689Z,108.70
2022-10-30T08:01:26.457Z,107.30
2022-10-30T08:03:53.217Z,109.95
2022-10-30T08:06:22.976Z,103.47
2022-10-30T08:08:52.971Z,113.03
2022-10-30T08:11:19.641Z,112.30
2022-10-30T08:13:46.294Z,107.60
2022-10-30T08:16:12.951Z,99.97
2022-10-30T08:18:42.308Z,99.47
2022-10-30T08:21:09.321Z,99.32
2022-10-30T08:23:36.069Z,103.18
2022-10-30T08:26:02.705Z,101.68
2022-10-30T08:28:32.642Z,109.50
2022-10-30T08:31:00.743Z,101.85
2022-10-30T08:33:27.367Z,101.50
2022-10-30T08:35:59.168Z,101.60
2022-10-30T08:38:27.391Z,107.05
2022-10-30T08:40:54.368Z,97.13
2022-10-30T08:43:21.816Z,98.22
2022-10-30T08:45:48.453Z,97.80
2022-10-30T08:48:16.503Z,91.20
2022-10-30T08:50:44.001Z,96.93
2022-10-30T08:53:15.376Z,94.07
2022-10-30T08:55:42.482Z,90.20
2022-10-30T08:58:09.109Z,88.70
2022-10-30T09:00:35.768Z,89.47
2022-10-30T09:03:03.072Z,90.23
2022-10-30T09:05:30.210Z,89.27
2022-10-30T09:07:59.030Z,91.30
2022-10-30T09:10:26.466Z,89.27
2022-10-30T09:12:57.021Z,89.23
2022-10-30T09:15:24.221Z,84.93
2022-10-30T09:18:04.433Z,88.80
2022-10-30T09:20:31.515Z,84.67
2022-10-30T09:22:58.910Z,83.47
2022-10-30T09:25:25.904Z,90.60
2022-10-30T09:27:52.534Z,84.83
2022-10-30T09:30:19.231Z,89.90
2022-10-30T09:32:47.342Z,86.57
2022-10-30T09:35:16.718Z,84.20
2022-10-30T09:37:43.417Z,94.07
2022-10-30T09:40:18.370Z,85.30
2022-10-30T09:42:47.600Z,88.23
2022-10-30T09:45:30.267Z,85.57
2022-10-30T09:48:25.266Z,86.10
2022-10-30T09:51:05.805Z,84.20
2022-10-30T09:54:15.287Z,86.70
2022-10-30T09:57:03.255Z,85.37
2022-10-30T09:59:36.334Z,85.57
2022-10-30T10:02:17.774Z,88.30
2022-10-30T10:04:49.734Z,86.23
2022-10-30T10:07:32.902Z,85.23
2022-10-30T10:10:05.368Z,87.37
2022-10-30T10:12:38.092Z,84.97
2022-10-30T10:15:25.723Z,88.10
2022-10-30T10:17:53.376Z,86.30
2022-10-30T10:20:35.043Z,85.57
2022-10-30T10:23:12.578Z,88.47
2022-10-30T10:25:44.396Z,84.77
2022-10-30T10:28:36.807Z,87.67
2022-10-30T10:31:30.173Z,85.10
2022-10-30T10:33:57.887Z,84.20
2022-10-30T10:36:34.815Z,84.40
2022-10-30T10:39:07.786Z,85.27
2022-10-30T10:41:53.804Z,84.03
2022-10-30T10:44:35.575Z,85.20
2022-10-30T10:47:32.956Z,83.50
2022-10-30T10:50:21.172Z,85.83
2022-10-30T10:53:01.497Z,85.53
2022-10-30T10:55:33.528Z,86.13
2022-10-30T10:58:14.632Z,82.93
2022-10-30T11:00:42.513Z,82.67
2022-10-30T11:06:04.808Z,83.70
2022-10-30T11:08:34.867Z,85.00
2022-10-30T11:11:06.547Z,85.27
2022-10-30T11:13:38.366Z,82.80
2022-10-30T11:16:25.964Z,86.17
2022-10-30T11:18:57.247Z,84.10
2022-10-30T11:21:25.398Z,85.23
2022-10-30T11:23:53.440Z,80.83
2022-10-30T11:26:25.893Z,81.63
2022-10-30T11:29:06.199Z,84.27
2022-10-30T11:31:40.066Z,83.00
2022-10-30T11:34:18.970Z,82.37
2022-10-30T11:36:46.745Z,96.70
2022-10-30T11:39:27.720Z,85.80
2022-10-30T11:42:02.100Z,83.67
2022-10-30T11:44:34.020Z,82.17
2022-10-30T11:47:01.569Z,83.37
2022-10-30T11:49:40.554Z,83.17
2022-10-30T11:52:08.380Z,81.00
2022-10-30T11:54:39.151Z,87.03
2022-10-30T11:57:27.922Z,84.83
2022-10-30T11:59:59.351Z,86.00
2022-10-30T12:02:30.379Z,84.23
2022-10-30T12:05:02.349Z,89.07
2022-10-30T12:07:33.199Z,84.47
2022-10-30T12:10:01.775Z,84.80
2022-10-30T12:12:36.171Z,89.23
2022-10-30T12:15:14.919Z,86.90
2022-10-30T12:17:50.311Z,86.10
2022-10-30T12:20:17.348Z,88.70
2022-10-30T12:22:44.302Z,86.40
2022-10-30T12:25:28.812Z,91.80
2022-10-30T12:28:04.132Z,87.20
2022-10-30T12:30:36.747Z,89.43
2022-10-30T12:33:17.255Z,86.73
2022-10-30T12:35:52.828Z,89.30
2022-10-30T12:38:25.294Z,85.80
2022-10-30T12:41:10.304Z,87.63
2022-10-30T12:43:36.957Z,85.57
2022-10-30T12:46:42.365Z,87.80
2022-10-30T12:49:20.548Z,87.03
2022-10-30T12:51:58.538Z,88.43
2022-10-30T12:54:30.849Z,87.90
2022-10-30T12:57:08.291Z,86.07
2022-10-30T12:59:57.500Z,88.40
2022-10-30T13:02:28.512Z,87.97
2022-10-30T13:05:01.479Z,86.97
2022-10-30T13:07:34.303Z,89.50
2022-10-30T13:10:28.645Z,86.77
2022-10-30T13:13:08.257Z,91.30
2022-10-30T13:15:41.909Z,85.70
2022-10-30T13:18:23.361Z,87.67
2022-10-30T13:21:06.943Z,86.20
2022-10-30T13:23:48.548Z,87.17
2022-10-30T13:26:33.194Z,94.50
2022-10-30T13:29:26.169Z,85.80
2022-10-30T13:32:01.040Z,84.23
2022-10-30T13:34:43.784Z,90.50
2022-10-30T13:37:26.480Z,82.77
2022-10-30T13:40:11.527Z,84.40
2022-10-30T13:42:58.643Z,83.43
2022-10-30T13:45:57.778Z,87.37
2022-10-30T13:48:36.612Z,84.27
2022-10-30T13:51:20.808Z,86.83
2022-10-30T13:53:55.849Z,88.43
2022-10-30T13:56:22.927Z,88.03
2022-10-30T13:59:10.535Z,86.27
2022-10-30T14:01:51.260Z,93.10
2022-10-30T14:04:38.902Z,89.90
2022-10-30T14:07:14.713Z,94.07
2022-10-30T14:10:08.749Z,85.17
2022-10-30T14:12:57.719Z,92.17
2022-10-30T14:15:30.826Z,87.40
2022-10-30T14:18:12.777Z,91.47
2022-10-30T14:20:42.937Z,92.97
2022-10-30T14:23:20.528Z,93.50
2022-10-30T14:26:13.956Z,92.23
2022-10-30T14:28:44.663Z,93.77
2022-10-30T14:31:13.170Z,90.37
2022-10-30T14:33:47.571Z,91.77
2022-10-30T14:36:25.919Z,90.97
2022-10-30T14:38:58.733Z,88.60
2022-10-30T14:42:23.893Z,93.87
2022-10-30T14:45:11.539Z,96.17
2022-10-30T14:47:56.860Z,94.83
2022-10-30T14:50:26.223Z,95.50
2022-10-30T14:53:11.432Z,106.47
2022-10-30T14:56:05.121Z,106.20
2022-10-30T14:58:36.739Z,114.15
2022-10-30T15:01:09.253Z,104.97
2022-10-30T15:03:50.128Z,114.53
2022-10-30T15:06:34.171Z,100.57
2022-10-30T15:09:08.758Z,103.03
2022-10-30T15:11:55.653Z,103.70
2022-10-30T15:14:48.338Z,102.15
2022-10-30T15:17:38.180Z,105.80
2022-10-30T15:20:13.904Z,101.75
2022-10-30T15:22:41.246Z,100.57
2022-10-30T15:25:20.251Z,96.90
2022-10-30T15:27:50.141Z,103.68
2022-10-30T15:30:21.819Z,99.15
2022-10-30T15:32:48.642Z,98.80
2022-10-30T15:35:26.279Z,106.22
2022-10-30T15:38:07.784Z,111.60
2022-10-30T15:40:36.551Z,98.22
2022-10-30T15:43:06.094Z,105.45
2022-10-30T15:45:39.694Z,94.78
2022-10-30T15:48:09.288Z,106.07
2022-10-30T15:50:41.125Z,99.50
2022-10-30T15:53:20.364Z,98.28
2022-10-30T15:55:48.394Z,102.25
2022-10-30T15:58:21.285Z,113.10
2022-10-30T16:01:01.899Z,97.47
2022-10-30T16:03:29.531Z,101.35
2022-10-30T16:06:17.809Z,102.97
2022-10-30T16:08:47.193Z,100.25
2022-10-30T16:11:14.785Z,99.85
2022-10-30T16:13:42.465Z,98.25
2022-10-30T16:16:16.706Z,105.25
2022-10-30T16:18:44.326Z,102.72
2022-10-30T16:21:16.384Z,100.82
2022-10-30T16:23:51.748Z,99.40
2022-10-30T16:26:36.338Z,100.00
2022-10-30T16:29:13.859Z,112.28
2022-10-30T16:31:43.264Z,107.07
2022-10-30T16:34:14.396Z,97.30
2022-10-30T16:36:41.559Z,99.70
2022-10-30T16:39:13.943Z,103.38
2022-10-30T16:41:41.248Z,99.03
2022-10-30T16:44:25.170Z,102.72
2022-10-30T16:46:53.706Z,102.43
2022-10-30T16:49:24.512Z,99.35
2022-10-30T16:52:00.003Z,99.60
2022-10-30T16:54:31.040Z,105.00
2022-10-30T16:56:59.850Z,103.38
2022-10-30T16:59:33.465Z,100.63
2022-10-30T17:02:05.844Z,104.55
2022-10-30T17:04:34.433Z,100.65
2022-10-30T17:07:08.119Z,101.55
2022-10-30T17:09:37.049Z,116.32
2022-10-30T17:12:20.448Z,106.10
2022-10-30T17:14:53.057Z,101.32
2022-10-30T17:17:42.700Z,103.57
2022-10-30T17:20:12.491Z,107.50
2022-10-30T17:22:39.555Z,107.85
2022-10-30T17:25:36.493Z,97.78
2022-10-30T17:28:03.559Z,100.32
2022-10-30T17:30:34.629Z,104.45
2022-10-30T17:33:03.984Z,107.10
2022-10-30T17:35:30.770Z,112.15
2022-10-30T17:37:59.910Z,112.60
2022-10-30T17:40:29.741Z,104.93
2022-10-30T17:42:56.388Z,113.00
2022-10-30T17:45:23.017Z,101.88
2022-10-30T17:47:49.624Z,103.28
2022-10-30T17:50:16.273Z,97.95
2022-10-30T17:52:42.913Z,100.95
2022-10-30T17:55:23.116Z,99.20
2022-10-30T17:57:50.051Z,101.63
2022-10-30T18:00:16.908Z,110.80
2022-10-30T18:02:43.585Z,99.57
2022-10-30T18:05:18.746Z,104.47
2022-10-30T18:07:45.773Z,102.70
2022-10-30T18:10:13.259Z,101.65
2022-10-30T18:12:41.313Z,100.05
2022-10-30T18:15:35.622Z,101.60
2022-10-30T18:18:05.499Z,102.97
2022-10-30T18:20:33.513Z,99.60
2022-10-30T18:23:00.667Z,99.90
2022-10-30T18:25:32.235Z,104.18
2022-10-30T18:27:58.870Z,102.30
2022-10-30T18:30:25.854Z,98.97
2022-10-30T18:32:52.484Z,104.53
2022-10-30T18:35:39.389Z,100.90
2022-10-30T18:38:06.741Z,104.20
2022-10-30T18:40:33.418Z,107.75
2022-10-30T18:43:01.445Z,109.90
2022-10-30T18:45:37.745Z,115.85
2022-10-30T18:48:04.564Z,105.07
2022-10-30T18:50:31.608Z,101.10
2022-10-30T18:52:59.415Z,100.80
2022-10-30T18:55:34.592Z,101.80
2022-10-30T18:58:02.458Z,107.88
2022-10-30T19:00:39.727Z,98.78
2022-10-30T19:03:16.924Z,108.32
2022-10-30T19:05:48.774Z,102.97
2022-10-30T19:08:15.452Z,108.88
2022-10-30T19:10:45.381Z,104.75
2022-10-30T19:13:22.248Z,100.57
2022-10-30T19:15:59.924Z,100.72
2022-10-30T19:18:28.371Z,106.90
2022-10-30T19:21:15.697Z,100.53
2022-10-30T19:23:41.780Z,99.90
2022-10-30T19:26:08.584Z,98.15
2022-10-30T19:28:35.261Z,105.40
2022-10-30T19:31:01.901Z,105.47
2022-10-30T19:33:28.525Z,104.03
2022-10-30T19:36:04.642Z,106.55
2022-10-30T19:38:32.220Z,104.50
2022-10-30T19:40:59.595Z,107.22
2022-10-30T19:43:26.320Z,101.95
2022-10-30T19:45:55.733Z,105.97
2022-10-30T19:48:56.217Z,102.75
2022-10-30T19:51:11.487Z,110.75
2022-10-30T19:53:39.441Z,102.25
2022-10-30T19:56:06.430Z,100.47
2022-10-30T19:58:33.105Z,107.63
2022-10-30T20:00:59.834Z,101.18
2022-10-30T20:03:26.552Z,103.35
2022-10-30T20:05:54.155Z,99.85
2022-10-30T20:08:25.088Z,99.03
2022-10-30T20:10:57.180Z,102.80
2022-10-30T20:13:25.019Z,99.95
2022-10-30T20:15:53.249Z,99.68
2022-10-30T20:18:25.236Z,97.28
2022-10-30T20:20:56.496Z,97.47
2022-10-30T20:23:24.322Z,102.05
2022-10-30T20:25:53.152Z,98.05
2022-10-30T20:28:38.473Z,101.68
2022-10-30T20:31:06.532Z,103.57
2022-10-30T20:33:33.607Z,101.18
2022-10-30T20:36:00.423Z,104.90
2022-10-30T20:38:32.676Z,109.28
2022-10-30T20:41:01.302Z,109.38
2022-10-30T20:43:33.334Z,105.97
2022-10-30T20:46:01.024Z,101.55
2022-10-30T20:48:28.599Z,103.75
2022-10-30T20:50:56.859Z,102.35
2022-10-30T20:53:23.731Z,104.80
2022-10-30T20:55:50.560Z,100.35
2022-10-30T20:58:17.300Z,115.45
2022-10-30T21:00:43.983Z,101.95
2022-10-30T21:03:14.220Z,104.28
2022-10-30T21:05:44.396Z,103.53
2022-10-30T21:08:12.152Z,104.22
2022-10-30T21:10:39.793Z,103.60
2022-10-30T21:13:09.043Z,108.47
2022-10-30T21:15:42.371Z,105.40
2022-10-30T21:18:10.796Z,102.18
2022-10-30T21:20:38.250Z,103.20
2022-10-30T21:23:06.039Z,102.22
2022-10-30T21:25:33.194Z,102.03
2022-10-30T21:28:00.868Z,107.90
2022-10-30T21:30:28.338Z,103.55
2022-10-30T21:32:54.935Z,103.22
2022-10-30T21:35:21.678Z,105.55
2022-10-30T21:37:48.327Z,107.85
2022-10-30T21:40:15.058Z,110.40
2022-10-30T21:42:41.876Z,109.45
2022-10-30T21:45:09.166Z,108.55
2022-10-30T21:47:35.841Z,106.28
2022-10-30T21:50:06.153Z,103.57
2022-10-30T21:52:34.652Z,104.28
2022-10-30T21:55:01.289Z,104.10
2022-10-30T21:57:29.153Z,101.60
2022-10-30T21:59:58.707Z,103.78
2022-10-30T22:02:28.337Z,102.20
2022-10-30T22:04:55.128Z,105.22
2022-10-30T22:07:21.806Z,100.55
2022-10-30T22:09:48.455Z,103.95
2022-10-30T22:12:15.117Z,102.82
2022-10-30T22:14:41.754Z,104.03
2022-10-30T22:17:08.688Z,103.53
2022-10-30T22:19:35.296Z,103.80
2022-10-30T22:22:01.958Z,104.40
2022-10-30T22:24:28.577Z,106.82
2022-10-30T22:26:55.206Z,103.40
2022-10-30T22:29:21.946Z,105.25
2022-10-30T22:31:49.841Z,112.95
2022-10-30T22:34:16.461Z,102.93
2022-10-30T22:36:43.109Z,106.55
2022-10-30T22:39:13.742Z,105.47
2022-10-30T22:41:41.001Z,107.90
2022-10-30T22:44:11.571Z,105.38
2022-10-30T22:46:38.676Z,110.13
2022-10-30T22:49:06.345Z,108.32
2022-10-30T22:51:35.035Z,105.57
2022-10-30T22:54:03.791Z,111.47
2022-10-30T22:56:35.518Z,117.63
2022-10-30T22:59:07.416Z,115.97
2022-10-30T23:01:36.040Z,112.88
2022-10-30T23:04:04.529Z,113.43
2022-10-30T23:06:32.165Z,105.50
2022-10-30T23:09:00.644Z,108.20
2022-10-30T23:11:28.546Z,101.88
2022-10-30T23:13:55.895Z,109.72
2022-10-30T23:16:24.212Z,108.53
2022-10-30T23:18:51.527Z,107.90
2022-10-30T23:21:24.936Z,104.03
2022-10-30T23:23:52.339Z,120.45
2022-10-30T23:26:21.041Z,106.05
2022-10-30T23:28:49.041Z,112.25
2022-10-30T23:31:20.967Z,111.45
2022-10-30T23:33:48.967Z,116.90
2022-10-30T23:36:16.302Z,114.72
2022-10-30T23:38:43.369Z,110.88
2022-10-30T23:41:10.442Z,109.88
2022-10-30T23:43:37.065Z,112.57
2022-10-30T23:46:03.704Z,108.50
2022-10-30T23:48:30.317Z,108.30
2022-10-30T23:50:56.968Z,108.43
2022-10-30T23:53:23.596Z,108.70
2022-10-30T23:55:54.582Z,110.07
2022-10-30T23:58:21.666Z,105.15
